sensor_id;sensor_type;location;lat;lon;timestamp;P1;durP1;ratioP1;P2;durP2;ratioP2
31206;SDS011;17834;52.992;8.856;2023-03-23T00:02:24;21.30;;;11.50;;
31206;SDS011;17834;52.992;8.856;2023-03-23T00:04:50;20.25;;;10.02;;
31206;SDS011;17834;52.992;8.856;2023-03-23T00:07:18;19.10;;;10.30;;
31206;SDS011;17834;52.992;8.856;2023-03-23T00:09:46;20.58;;;11.13;;
31206;SDS011;17834;52.992;8.856;2023-03-23T00:12:12;21.52;;;11.80;;
31206;SDS011;17834;52.992;8.856;2023-03-23T00:14:40;16.85;;;10.23;;
31206;SDS011;17834;52.992;8.856;2023-03-23T00:17:09;22.15;;;11.18;;
31206;SDS011;17834;52.992;8.856;2023-03-23T00:19:39;20.13;;;11.60;;
31206;SDS011;17834;52.992;8.856;2023-03-23T00:22:12;19.08;;;11.00;;
31206;SDS011;17834;52.992;8.856;2023-03-23T00:24:38;23.27;;;11.50;;
31206;SDS011;17834;52.992;8.856;2023-03-23T00:27:04;22.73;;;11.95;;
31206;SDS011;17834;52.992;8.856;2023-03-23T00:29:30;21.27;;;11.52;;
31206;SDS011;17834;52.992;8.856;2023-03-23T00:31:57;22.08;;;11.35;;
31206;SDS011;17834;52.992;8.856;2023-03-23T00:34:23;25.42;;;11.98;;
31206;SDS011;17834;52.992;8.856;2023-03-23T00:36:50;20.60;;;11.68;;
31206;SDS011;17834;52.992;8.856;2023-03-23T00:39:18;25.48;;;11.80;;
31206;SDS011;17834;52.992;8.856;2023-03-23T00:41:44;23.67;;;11.65;;
31206;SDS011;17834;52.992;8.856;2023-03-23T00:44:10;25.98;;;11.75;;
31206;SDS011;17834;52.992;8.856;2023-03-23T00:46:42;23.17;;;11.68;;
31206;SDS011;17834;52.992;8.856;2023-03-23T00:49:09;22.77;;;11.95;;
31206;SDS011;17834;52.992;8.856;2023-03-23T00:51:37;23.08;;;12.45;;
31206;SDS011;17834;52.992;8.856;2023-03-23T00:54:03;24.23;;;11.70;;
31206;SDS011;17834;52.992;8.856;2023-03-23T00:56:29;21.40;;;12.43;;
31206;SDS011;17834;52.992;8.856;2023-03-23T00:58:55;22.85;;;12.95;;
31206;SDS011;17834;52.992;8.856;2023-03-23T01:01:21;21.63;;;11.48;;
31206;SDS011;17834;52.992;8.856;2023-03-23T01:03:48;21.35;;;12.23;;
31206;SDS011;17834;52.992;8.856;2023-03-23T01:06:14;22.73;;;12.50;;
31206;SDS011;17834;52.992;8.856;2023-03-23T01:08:41;23.38;;;12.68;;
31206;SDS011;17834;52.992;8.856;2023-03-23T01:11:14;23.95;;;12.40;;
31206;SDS011;17834;52.992;8.856;2023-03-23T01:13:41;22.58;;;12.90;;
31206;SDS011;17834;52.992;8.856;2023-03-23T01:16:08;27.13;;;13.30;;
31206;SDS011;17834;52.992;8.856;2023-03-23T01:18:34;23.48;;;12.85;;
31206;SDS011;17834;52.992;8.856;2023-03-23T01:21:08;24.42;;;13.25;;
31206;SDS011;17834;52.992;8.856;2023-03-23T01:23:35;23.60;;;12.25;;
31206;SDS011;17834;52.992;8.856;2023-03-23T01:26:05;23.45;;;12.60;;
31206;SDS011;17834;52.992;8.856;2023-03-23T01:28:32;24.92;;;12.40;;
31206;SDS011;17834;52.992;8.856;2023-03-23T01:31:02;24.70;;;13.70;;
31206;SDS011;17834;52.992;8.856;2023-03-23T01:33:28;20.50;;;12.55;;
31206;SDS011;17834;52.992;8.856;2023-03-23T01:35:55;24.67;;;12.95;;
31206;SDS011;17834;52.992;8.856;2023-03-23T01:38:21;24.30;;;12.70;;
31206;SDS011;17834;52.992;8.856;2023-03-23T01:40:47;24.20;;;12.10;;
31206;SDS011;17834;52.992;8.856;2023-03-23T01:43:14;22.45;;;12.15;;
31206;SDS011;17834;52.992;8.856;2023-03-23T01:45:40;24.15;;;13.38;;
31206;SDS011;17834;52.992;8.856;2023-03-23T01:48:15;24.00;;;13.27;;
31206;SDS011;17834;52.992;8.856;2023-03-23T01:50:46;19.25;;;11.88;;
31206;SDS011;17834;52.992;8.856;2023-03-23T01:53:12;25.63;;;12.90;;
31206;SDS011;17834;52.992;8.856;2023-03-23T01:55:39;22.20;;;11.95;;
31206;SDS011;17834;52.992;8.856;2023-03-23T01:58:06;23.38;;;12.60;;
31206;SDS011;17834;52.992;8.856;2023-03-23T02:00:33;25.33;;;12.32;;
31206;SDS011;17834;52.992;8.856;2023-03-23T02:02:59;18.50;;;11.05;;
31206;SDS011;17834;52.992;8.856;2023-03-23T02:07:52;23.02;;;12.00;;
31206;SDS011;17834;52.992;8.856;2023-03-23T02:10:18;24.02;;;12.02;;
31206;SDS011;17834;52.992;8.856;2023-03-23T02:12:44;26.02;;;12.30;;
31206;SDS011;17834;52.992;8.856;2023-03-23T02:15:10;23.48;;;11.88;;
31206;SDS011;17834;52.992;8.856;2023-03-23T02:22:54;26.25;;;13.38;;
31206;SDS011;17834;52.992;8.856;2023-03-23T02:38:20;21.95;;;12.55;;
31206;SDS011;17834;52.992;8.856;2023-03-23T02:40:47;24.42;;;13.45;;
31206;SDS011;17834;52.992;8.856;2023-03-23T02:43:15;21.95;;;12.38;;
31206;SDS011;17834;52.992;8.856;2023-03-23T02:45:42;28.65;;;14.23;;
31206;SDS011;17834;52.992;8.856;2023-03-23T02:48:10;20.77;;;12.43;;
31206;SDS011;17834;52.992;8.856;2023-03-23T02:50:36;22.63;;;12.88;;
31206;SDS011;17834;52.992;8.856;2023-03-23T02:53:03;26.65;;;13.07;;
31206;SDS011;17834;52.992;8.856;2023-03-23T02:55:31;24.02;;;12.30;;
31206;SDS011;17834;52.992;8.856;2023-03-23T02:57:57;23.70;;;12.68;;
31206;SDS011;17834;52.992;8.856;2023-03-23T03:00:26;26.17;;;12.35;;
31206;SDS011;17834;52.992;8.856;2023-03-23T03:02:53;20.75;;;11.98;;
31206;SDS011;17834;52.992;8.856;2023-03-23T03:07:55;21.35;;;12.70;;
31206;SDS011;17834;52.992;8.856;2023-03-23T03:15:21;26.80;;;12.95;;
31206;SDS011;17834;52.992;8.856;2023-03-23T03:17:51;23.73;;;12.88;;
31206;SDS011;17834;52.992;8.856;2023-03-23T03:20:18;23.55;;;12.43;;
31206;SDS011;17834;52.992;8.856;2023-03-23T03:22:44;23.17;;;12.05;;
31206;SDS011;17834;52.992;8.856;2023-03-23T03:25:11;25.05;;;12.63;;
31206;SDS011;17834;52.992;8.856;2023-03-23T03:27:38;21.92;;;12.23;;
31206;SDS011;17834;52.992;8.856;2023-03-23T03:30:05;21.20;;;12.43;;
31206;SDS011;17834;52.992;8.856;2023-03-23T03:32:36;23.08;;;12.07;;
31206;SDS011;17834;52.992;8.856;2023-03-23T03:35:05;19.08;;;11.90;;
31206;SDS011;17834;52.992;8.856;2023-03-23T03:37:38;22.25;;;12.15;;
31206;SDS011;17834;52.992;8.856;2023-03-23T03:40:06;19.73;;;11.73;;
31206;SDS011;17834;52.992;8.856;2023-03-23T03:42:36;22.08;;;11.65;;
31206;SDS011;17834;52.992;8.856;2023-03-23T03:45:02;23.02;;;11.90;;
31206;SDS011;17834;52.992;8.856;2023-03-23T03:47:28;19.25;;;10.25;;
31206;SDS011;17834;52.992;8.856;2023-03-23T03:49:54;22.02;;;11.15;;
31206;SDS011;17834;52.992;8.856;2023-03-23T03:52:20;18.17;;;10.68;;
31206;SDS011;17834;52.992;8.856;2023-03-23T03:54:46;20.90;;;10.88;;
31206;SDS011;17834;52.992;8.856;2023-03-23T03:57:12;18.70;;;10.70;;
31206;SDS011;17834;52.992;8.856;2023-03-23T03:59:38;18.25;;;10.40;;
31206;SDS011;17834;52.992;8.856;2023-03-23T04:02:05;18.75;;;10.50;;
31206;SDS011;17834;52.992;8.856;2023-03-23T04:04:31;15.93;;;9.75;;
31206;SDS011;17834;52.992;8.856;2023-03-23T04:06:57;16.60;;;9.70;;
31206;SDS011;17834;52.992;8.856;2023-03-23T04:09:23;19.08;;;10.07;;
31206;SDS011;17834;52.992;8.856;2023-03-23T04:11:51;18.77;;;10.00;;
31206;SDS011;17834;52.992;8.856;2023-03-23T04:14:18;17.88;;;9.63;;
31206;SDS011;17834;52.992;8.856;2023-03-23T04:16:44;20.40;;;9.70;;
31206;SDS011;17834;52.992;8.856;2023-03-23T04:19:10;16.35;;;9.25;;
31206;SDS011;17834;52.992;8.856;2023-03-23T04:21:37;17.67;;;9.02;;
31206;SDS011;17834;52.992;8.856;2023-03-23T04:24:03;16.38;;;8.93;;
31206;SDS011;17834;52.992;8.856;2023-03-23T04:26:29;16.02;;;9.15;;
31206;SDS011;17834;52.992;8.856;2023-03-23T04:28:55;19.40;;;9.65;;
31206;SDS011;17834;52.992;8.856;2023-03-23T04:31:23;16.65;;;8.50;;
31206;SDS011;17834;52.992;8.856;2023-03-23T04:33:50;17.65;;;8.88;;
31206;SDS011;17834;52.992;8.856;2023-03-23T04:36:19;14.52;;;8.55;;
31206;SDS011;17834;52.992;8.856;2023-03-23T04:38:47;14.40;;;7.35;;
31206;SDS011;17834;52.992;8.856;2023-03-23T04:41:15;13.73;;;7.90;;
31206;SDS011;17834;52.992;8.856;2023-03-23T04:43:41;12.75;;;7.47;;
31206;SDS011;17834;52.992;8.856;2023-03-23T04:46:07;17.40;;;7.38;;
31206;SDS011;17834;52.992;8.856;2023-03-23T04:48:36;13.40;;;6.95;;
31206;SDS011;17834;52.992;8.856;2023-03-23T04:51:04;16.77;;;8.38;;
31206;SDS011;17834;52.992;8.856;2023-03-23T04:53:30;13.45;;;8.13;;
31206;SDS011;17834;52.992;8.856;2023-03-23T04:55:56;14.40;;;7.43;;
31206;SDS011;17834;52.992;8.856;2023-03-23T04:58:23;13.77;;;7.55;;
31206;SDS011;17834;52.992;8.856;2023-03-23T05:00:49;12.00;;;6.45;;
31206;SDS011;17834;52.992;8.856;2023-03-23T05:03:16;14.45;;;6.63;;
31206;SDS011;17834;52.992;8.856;2023-03-23T05:05:42;10.25;;;6.70;;
31206;SDS011;17834;52.992;8.856;2023-03-23T05:08:13;11.38;;;6.82;;
31206;SDS011;17834;52.992;8.856;2023-03-23T05:10:39;13.55;;;6.80;;
31206;SDS011;17834;52.992;8.856;2023-03-23T05:13:05;11.57;;;6.68;;
31206;SDS011;17834;52.992;8.856;2023-03-23T05:15:31;10.85;;;6.60;;
31206;SDS011;17834;52.992;8.856;2023-03-23T05:17:57;11.32;;;6.10;;
31206;SDS011;17834;52.992;8.856;2023-03-23T05:20:23;10.35;;;6.28;;
31206;SDS011;17834;52.992;8.856;2023-03-23T05:22:49;12.20;;;6.82;;
31206;SDS011;17834;52.992;8.856;2023-03-23T05:25:16;11.07;;;6.40;;
31206;SDS011;17834;52.992;8.856;2023-03-23T05:27:46;13.88;;;5.72;;
31206;SDS011;17834;52.992;8.856;2023-03-23T05:30:17;11.55;;;6.13;;
31206;SDS011;17834;52.992;8.856;2023-03-23T05:32:44;9.10;;;5.35;;
31206;SDS011;17834;52.992;8.856;2023-03-23T05:35:10;9.52;;;5.35;;
31206;SDS011;17834;52.992;8.856;2023-03-23T05:37:36;14.30;;;6.07;;
31206;SDS011;17834;52.992;8.856;2023-03-23T05:40:03;9.43;;;5.53;;
31206;SDS011;17834;52.992;8.856;2023-03-23T05:42:31;10.45;;;6.00;;
31206;SDS011;17834;52.992;8.856;2023-03-23T05:44:58;10.32;;;6.05;;
31206;SDS011;17834;52.992;8.856;2023-03-23T05:47:25;9.63;;;5.10;;
31206;SDS011;17834;52.992;8.856;2023-03-23T05:49:51;8.60;;;4.68;;
31206;SDS011;17834;52.992;8.856;2023-03-23T05:52:18;10.65;;;5.32;;
31206;SDS011;17834;52.992;8.856;2023-03-23T05:54:44;8.25;;;4.97;;
31206;SDS011;17834;52.992;8.856;2023-03-23T05:57:10;7.78;;;5.15;;
31206;SDS011;17834;52.992;8.856;2023-03-23T05:59:36;7.70;;;4.82;;
31206;SDS011;17834;52.992;8.856;2023-03-23T06:02:03;9.88;;;4.95;;
31206;SDS011;17834;52.992;8.856;2023-03-23T06:04:30;8.00;;;4.53;;
31206;SDS011;17834;52.992;8.856;2023-03-23T06:06:58;10.52;;;5.18;;
31206;SDS011;17834;52.992;8.856;2023-03-23T06:09:24;8.23;;;4.90;;
31206;SDS011;17834;52.992;8.856;2023-03-23T06:11:50;7.30;;;4.18;;
31206;SDS011;17834;52.992;8.856;2023-03-23T06:14:16;9.07;;;4.40;;
31206;SDS011;17834;52.992;8.856;2023-03-23T06:16:43;8.32;;;4.65;;
31206;SDS011;17834;52.992;8.856;2023-03-23T06:19:09;10.35;;;4.78;;
31206;SDS011;17834;52.992;8.856;2023-03-23T06:21:36;8.52;;;3.88;;
31206;SDS011;17834;52.992;8.856;2023-03-23T06:24:02;8.35;;;4.82;;
31206;SDS011;17834;52.992;8.856;2023-03-23T06:26:38;9.15;;;4.50;;
31206;SDS011;17834;52.992;8.856;2023-03-23T06:29:05;6.18;;;4.03;;
31206;SDS011;17834;52.992;8.856;2023-03-23T06:31:36;8.95;;;4.82;;
31206;SDS011;17834;52.992;8.856;2023-03-23T06:34:02;7.97;;;5.35;;
31206;SDS011;17834;52.992;8.856;2023-03-23T06:36:29;8.27;;;4.70;;
31206;SDS011;17834;52.992;8.856;2023-03-23T06:38:55;8.15;;;4.78;;
31206;SDS011;17834;52.992;8.856;2023-03-23T06:41:21;11.27;;;5.43;;
31206;SDS011;17834;52.992;8.856;2023-03-23T06:43:47;6.97;;;4.85;;
31206;SDS011;17834;52.992;8.856;2023-03-23T06:46:13;9.00;;;4.90;;
31206;SDS011;17834;52.992;8.856;2023-03-23T06:48:39;9.32;;;5.22;;
31206;SDS011;17834;52.992;8.856;2023-03-23T06:51:06;8.80;;;4.68;;
31206;SDS011;17834;52.992;8.856;2023-03-23T06:53:32;7.95;;;4.82;;
31206;SDS011;17834;52.992;8.856;2023-03-23T06:55:58;7.30;;;5.13;;
31206;SDS011;17834;52.992;8.856;2023-03-23T06:58:24;7.72;;;4.85;;
31206;SDS011;17834;52.992;8.856;2023-03-23T07:00:54;9.65;;;5.25;;
31206;SDS011;17834;52.992;8.856;2023-03-23T07:03:21;7.68;;;5.25;;
31206;SDS011;17834;52.992;8.856;2023-03-23T07:05:47;6.75;;;4.35;;
31206;SDS011;17834;52.992;8.856;2023-03-23T07:08:13;8.25;;;5.03;;
31206;SDS011;17834;52.992;8.856;2023-03-23T07:10:39;9.38;;;4.82;;
31206;SDS011;17834;52.992;8.856;2023-03-23T07:13:05;7.65;;;5.10;;
31206;SDS011;17834;52.992;8.856;2023-03-23T07:15:32;8.32;;;4.60;;
31206;SDS011;17834;52.992;8.856;2023-03-23T07:17:57;7.07;;;4.65;;
31206;SDS011;17834;52.992;8.856;2023-03-23T07:20:24;7.93;;;4.20;;
31206;SDS011;17834;52.992;8.856;2023-03-23T07:22:50;7.20;;;4.38;;
31206;SDS011;17834;52.992;8.856;2023-03-23T07:25:16;7.45;;;3.90;;
31206;SDS011;17834;52.992;8.856;2023-03-23T07:27:44;7.18;;;3.95;;
31206;SDS011;17834;52.992;8.856;2023-03-23T07:30:10;7.65;;;4.25;;
31206;SDS011;17834;52.992;8.856;2023-03-23T07:32:37;6.78;;;4.07;;
31206;SDS011;17834;52.992;8.856;2023-03-23T07:35:03;7.40;;;4.35;;
31206;SDS011;17834;52.992;8.856;2023-03-23T07:37:29;8.75;;;4.75;;
31206;SDS011;17834;52.992;8.856;2023-03-23T07:39:57;8.05;;;4.32;;
31206;SDS011;17834;52.992;8.856;2023-03-23T07:42:23;6.78;;;4.25;;
31206;SDS011;17834;52.992;8.856;2023-03-23T07:44:49;6.40;;;3.70;;
31206;SDS011;17834;52.992;8.856;2023-03-23T07:47:15;3.92;;;1.90;;
31206;SDS011;17834;52.992;8.856;2023-03-23T07:49:42;2.47;;;1.35;;
31206;SDS011;17834;52.992;8.856;2023-03-23T07:52:08;3.42;;;1.40;;
31206;SDS011;17834;52.992;8.856;2023-03-23T07:54:36;2.88;;;1.45;;
31206;SDS011;17834;52.992;8.856;2023-03-23T07:57:02;3.90;;;1.20;;
31206;SDS011;17834;52.992;8.856;2023-03-23T07:59:28;4.38;;;1.30;;
31206;SDS011;17834;52.992;8.856;2023-03-23T08:01:54;3.10;;;1.40;;
31206;SDS011;17834;52.992;8.856;2023-03-23T08:04:22;3.20;;;1.52;;
31206;SDS011;17834;52.992;8.856;2023-03-23T08:06:49;7.30;;;1.83;;
31206;SDS011;17834;52.992;8.856;2023-03-23T08:09:15;6.72;;;1.95;;
31206;SDS011;17834;52.992;8.856;2023-03-23T08:11:41;3.97;;;1.38;;
31206;SDS011;17834;52.992;8.856;2023-03-23T08:14:08;7.43;;;1.73;;
31206;SDS011;17834;52.992;8.856;2023-03-23T08:16:34;5.38;;;1.30;;
31206;SDS011;17834;52.992;8.856;2023-03-23T08:19:00;6.35;;;1.63;;
31206;SDS011;17834;52.992;8.856;2023-03-23T08:21:27;4.63;;;1.75;;
31206;SDS011;17834;52.992;8.856;2023-03-23T08:23:53;4.57;;;1.40;;
31206;SDS011;17834;52.992;8.856;2023-03-23T08:26:19;7.97;;;1.52;;
31206;SDS011;17834;52.992;8.856;2023-03-23T08:28:47;3.85;;;1.50;;
31206;SDS011;17834;52.992;8.856;2023-03-23T08:31:13;5.82;;;1.55;;
31206;SDS011;17834;52.992;8.856;2023-03-23T08:33:40;6.35;;;1.65;;
31206;SDS011;17834;52.992;8.856;2023-03-23T08:36:07;11.43;;;1.90;;
31206;SDS011;17834;52.992;8.856;2023-03-23T08:38:33;3.22;;;1.48;;
31206;SDS011;17834;52.992;8.856;2023-03-23T08:41:00;6.95;;;1.58;;
31206;SDS011;17834;52.992;8.856;2023-03-23T08:43:27;9.65;;;2.45;;
31206;SDS011;17834;52.992;8.856;2023-03-23T08:45:53;5.97;;;1.70;;
31206;SDS011;17834;52.992;8.856;2023-03-23T08:48:20;5.78;;;2.00;;
31206;SDS011;17834;52.992;8.856;2023-03-23T08:50:46;8.88;;;2.85;;
31206;SDS011;17834;52.992;8.856;2023-03-23T08:53:12;7.47;;;2.42;;
31206;SDS011;17834;52.992;8.856;2023-03-23T08:55:38;6.80;;;1.75;;
31206;SDS011;17834;52.992;8.856;2023-03-23T08:58:04;8.82;;;2.42;;
31206;SDS011;17834;52.992;8.856;2023-03-23T09:00:31;3.90;;;1.65;;
31206;SDS011;17834;52.992;8.856;2023-03-23T09:02:57;5.13;;;2.03;;
31206;SDS011;17834;52.992;8.856;2023-03-23T09:05:24;10.57;;;2.90;;
31206;SDS011;17834;52.992;8.856;2023-03-23T09:07:52;12.00;;;2.40;;
31206;SDS011;17834;52.992;8.856;2023-03-23T09:10:18;10.27;;;2.55;;
31206;SDS011;17834;52.992;8.856;2023-03-23T09:12:44;6.78;;;1.92;;
31206;SDS011;17834;52.992;8.856;2023-03-23T09:15:11;6.03;;;1.92;;
31206;SDS011;17834;52.992;8.856;2023-03-23T09:17:39;5.68;;;1.40;;
31206;SDS011;17834;52.992;8.856;2023-03-23T09:20:06;5.15;;;1.33;;
31206;SDS011;17834;52.992;8.856;2023-03-23T09:22:36;7.03;;;1.50;;
31206;SDS011;17834;52.992;8.856;2023-03-23T09:25:03;5.72;;;1.58;;
31206;SDS011;17834;52.992;8.856;2023-03-23T09:27:29;8.27;;;1.20;;
31206;SDS011;17834;52.992;8.856;2023-03-23T09:29:55;8.23;;;1.35;;
31206;SDS011;17834;52.992;8.856;2023-03-23T09:32:21;4.65;;;1.63;;
31206;SDS011;17834;52.992;8.856;2023-03-23T09:34:47;3.88;;;1.40;;
31206;SDS011;17834;52.992;8.856;2023-03-23T09:37:14;6.43;;;1.77;;
31206;SDS011;17834;52.992;8.856;2023-03-23T09:39:41;8.57;;;1.52;;
31206;SDS011;17834;52.992;8.856;2023-03-23T09:45:02;4.40;;;1.63;;
31206;SDS011;17834;52.992;8.856;2023-03-23T09:47:40;8.93;;;1.70;;
31206;SDS011;17834;52.992;8.856;2023-03-23T09:50:15;5.28;;;1.48;;
31206;SDS011;17834;52.992;8.856;2023-03-23T09:52:44;5.27;;;1.67;;
31206;SDS011;17834;52.992;8.856;2023-03-23T09:55:13;12.23;;;2.78;;
31206;SDS011;17834;52.992;8.856;2023-03-23T09:57:43;6.10;;;1.67;;
31206;SDS011;17834;52.992;8.856;2023-03-23T10:07:54;8.13;;;2.10;;
31206;SDS011;17834;52.992;8.856;2023-03-23T10:10:20;6.28;;;2.40;;
31206;SDS011;17834;52.992;8.856;2023-03-23T10:12:49;13.00;;;1.95;;
31206;SDS011;17834;52.992;8.856;2023-03-23T10:15:19;11.18;;;2.42;;
31206;SDS011;17834;52.992;8.856;2023-03-23T10:22:41;6.07;;;1.63;;
31206;SDS011;17834;52.992;8.856;2023-03-23T10:27:50;8.73;;;1.77;;
31206;SDS011;17834;52.992;8.856;2023-03-23T10:32:48;7.82;;;2.25;;
31206;SDS011;17834;52.992;8.856;2023-03-23T10:35:18;7.28;;;2.05;;
31206;SDS011;17834;52.992;8.856;2023-03-23T10:37:47;7.88;;;1.73;;
31206;SDS011;17834;52.992;8.856;2023-03-23T10:40:19;8.82;;;2.30;;
31206;SDS011;17834;52.992;8.856;2023-03-23T10:42:48;13.98;;;2.30;;
31206;SDS011;17834;52.992;8.856;2023-03-23T10:45:16;5.18;;;1.98;;
31206;SDS011;17834;52.992;8.856;2023-03-23T10:47:44;8.45;;;2.20;;
31206;SDS011;17834;52.992;8.856;2023-03-23T10:50:15;12.73;;;2.13;;
31206;SDS011;17834;52.992;8.856;2023-03-23T10:52:42;9.68;;;2.08;;
31206;SDS011;17834;52.992;8.856;2023-03-23T10:57:36;9.40;;;2.85;;
31206;SDS011;17834;52.992;8.856;2023-03-23T11:02:35;5.78;;;2.00;;
31206;SDS011;17834;52.992;8.856;2023-03-23T11:05:04;8.05;;;1.77;;
31206;SDS011;17834;52.992;8.856;2023-03-23T11:07:32;6.15;;;2.42;;
31206;SDS011;17834;52.992;8.856;2023-03-23T11:10:05;5.75;;;1.80;;
31206;SDS011;17834;52.992;8.856;2023-03-23T11:12:33;12.50;;;3.28;;
31206;SDS011;17834;52.992;8.856;2023-03-23T11:15:42;8.65;;;2.05;;
31206;SDS011;17834;52.992;8.856;2023-03-23T11:17:59;8.32;;;2.20;;
31206;SDS011;17834;52.992;8.856;2023-03-23T11:20:26;6.40;;;2.08;;
31206;SDS011;17834;52.992;8.856;2023-03-23T11:22:53;5.60;;;2.15;;
31206;SDS011;17834;52.992;8.856;2023-03-23T11:25:20;10.40;;;2.10;;
31206;SDS011;17834;52.992;8.856;2023-03-23T11:27:46;7.22;;;1.80;;
31206;SDS011;17834;52.992;8.856;2023-03-23T11:32:42;5.30;;;2.13;;
31206;SDS011;17834;52.992;8.856;2023-03-23T11:38:04;6.30;;;1.70;;
31206;SDS011;17834;52.992;8.856;2023-03-23T11:40:32;9.00;;;2.28;;
31206;SDS011;17834;52.992;8.856;2023-03-23T11:43:06;5.72;;;1.85;;
31206;SDS011;17834;52.992;8.856;2023-03-23T11:45:50;8.88;;;2.08;;
31206;SDS011;17834;52.992;8.856;2023-03-23T11:48:33;6.05;;;2.10;;
31206;SDS011;17834;52.992;8.856;2023-03-23T11:53:50;4.07;;;1.70;;
31206;SDS011;17834;52.992;8.856;2023-03-23T11:56:25;4.13;;;2.10;;
31206;SDS011;17834;52.992;8.856;2023-03-23T11:58:56;5.55;;;1.90;;
31206;SDS011;17834;52.992;8.856;2023-03-23T12:06:30;5.25;;;1.80;;
31206;SDS011;17834;52.992;8.856;2023-03-23T12:12:00;5.25;;;1.63;;
31206;SDS011;17834;52.992;8.856;2023-03-23T12:14:41;7.07;;;2.38;;
31206;SDS011;17834;52.992;8.856;2023-03-23T12:22:18;6.43;;;2.65;;
31206;SDS011;17834;52.992;8.856;2023-03-23T12:27:49;4.35;;;2.00;;
31206;SDS011;17834;52.992;8.856;2023-03-23T12:33:07;5.45;;;1.77;;
31206;SDS011;17834;52.992;8.856;2023-03-23T12:38:38;3.38;;;1.80;;
31206;SDS011;17834;52.992;8.856;2023-03-23T12:40:57;5.32;;;2.20;;
31206;SDS011;17834;52.992;8.856;2023-03-23T12:43:33;3.30;;;1.83;;
31206;SDS011;17834;52.992;8.856;2023-03-23T12:48:37;3.70;;;1.42;;
31206;SDS011;17834;52.992;8.856;2023-03-23T12:53:33;6.45;;;1.48;;
31206;SDS011;17834;52.992;8.856;2023-03-23T12:56:09;5.60;;;1.75;;
31206;SDS011;17834;52.992;8.856;2023-03-23T12:58:38;3.60;;;1.52;;
31206;SDS011;17834;52.992;8.856;2023-03-23T13:01:29;2.88;;;1.25;;
31206;SDS011;17834;52.992;8.856;2023-03-23T13:04:03;7.57;;;1.40;;
31206;SDS011;17834;52.992;8.856;2023-03-23T13:06:35;9.30;;;2.38;;
31206;SDS011;17834;52.992;8.856;2023-03-23T13:09:03;5.85;;;2.08;;
31206;SDS011;17834;52.992;8.856;2023-03-23T13:14:11;4.78;;;1.25;;
31206;SDS011;17834;52.992;8.856;2023-03-23T13:16:44;2.90;;;1.63;;
31206;SDS011;17834;52.992;8.856;2023-03-23T13:21:58;6.85;;;1.70;;
31206;SDS011;17834;52.992;8.856;2023-03-23T13:24:27;5.90;;;1.58;;
31206;SDS011;17834;52.992;8.856;2023-03-23T13:26:54;5.53;;;1.70;;
31206;SDS011;17834;52.992;8.856;2023-03-23T13:29:23;3.75;;;1.75;;
31206;SDS011;17834;52.992;8.856;2023-03-23T13:31:50;3.72;;;1.98;;
31206;SDS011;17834;52.992;8.856;2023-03-23T13:34:21;4.45;;;1.42;;
31206;SDS011;17834;52.992;8.856;2023-03-23T13:36:57;8.85;;;1.98;;
31206;SDS011;17834;52.992;8.856;2023-03-23T13:39:25;5.07;;;1.58;;
31206;SDS011;17834;52.992;8.856;2023-03-23T13:42:26;4.97;;;1.70;;
31206;SDS011;17834;52.992;8.856;2023-03-23T13:52:16;4.80;;;1.65;;
31206;SDS011;17834;52.992;8.856;2023-03-23T13:54:44;3.70;;;1.50;;
31206;SDS011;17834;52.992;8.856;2023-03-23T13:59:56;9.77;;;2.05;;
31206;SDS011;17834;52.992;8.856;2023-03-23T14:04:56;9.05;;;3.35;;
31206;SDS011;17834;52.992;8.856;2023-03-23T14:07:23;5.90;;;1.30;;
31206;SDS011;17834;52.992;8.856;2023-03-23T14:09:49;5.57;;;1.77;;
31206;SDS011;17834;52.992;8.856;2023-03-23T14:12:17;5.90;;;1.50;;
31206;SDS011;17834;52.992;8.856;2023-03-23T14:14:47;4.22;;;1.33;;
31206;SDS011;17834;52.992;8.856;2023-03-23T14:17:22;5.63;;;1.38;;
31206;SDS011;17834;52.992;8.856;2023-03-23T14:19:50;3.30;;;1.42;;
31206;SDS011;17834;52.992;8.856;2023-03-23T14:22:24;5.47;;;1.67;;
31206;SDS011;17834;52.992;8.856;2023-03-23T14:24:51;5.05;;;1.20;;
31206;SDS011;17834;52.992;8.856;2023-03-23T14:27:19;2.55;;;0.60;;
31206;SDS011;17834;52.992;8.856;2023-03-23T14:29:45;2.55;;;0.60;;
31206;SDS011;17834;52.992;8.856;2023-03-23T14:32:15;6.07;;;0.63;;
31206;SDS011;17834;52.992;8.856;2023-03-23T14:34:42;2.92;;;0.60;;
31206;SDS011;17834;52.992;8.856;2023-03-23T14:37:12;4.85;;;0.70;;
31206;SDS011;17834;52.992;8.856;2023-03-23T14:39:39;3.47;;;1.05;;
31206;SDS011;17834;52.992;8.856;2023-03-23T14:42:06;4.53;;;0.82;;
31206;SDS011;17834;52.992;8.856;2023-03-23T14:44:34;4.10;;;0.85;;
31206;SDS011;17834;52.992;8.856;2023-03-23T14:47:03;3.80;;;0.98;;
31206;SDS011;17834;52.992;8.856;2023-03-23T14:49:31;1.65;;;0.73;;
31206;SDS011;17834;52.992;8.856;2023-03-23T14:52:02;5.78;;;1.45;;
31206;SDS011;17834;52.992;8.856;2023-03-23T14:54:28;6.25;;;2.00;;
31206;SDS011;17834;52.992;8.856;2023-03-23T14:56:54;7.55;;;1.50;;
31206;SDS011;17834;52.992;8.856;2023-03-23T14:59:21;6.72;;;1.92;;
31206;SDS011;17834;52.992;8.856;2023-03-23T15:01:47;6.25;;;1.10;;
31206;SDS011;17834;52.992;8.856;2023-03-23T15:06:43;4.72;;;1.30;;
31206;SDS011;17834;52.992;8.856;2023-03-23T15:09:13;3.95;;;1.10;;
31206;SDS011;17834;52.992;8.856;2023-03-23T15:11:41;7.32;;;1.45;;
31206;SDS011;17834;52.992;8.856;2023-03-23T15:14:08;7.18;;;1.20;;
31206;SDS011;17834;52.992;8.856;2023-03-23T15:16:35;4.53;;;1.20;;
31206;SDS011;17834;52.992;8.856;2023-03-23T15:19:11;8.65;;;1.42;;
31206;SDS011;17834;52.992;8.856;2023-03-23T15:21:48;5.45;;;1.30;;
31206;SDS011;17834;52.992;8.856;2023-03-23T15:24:25;5.65;;;0.90;;
31206;SDS011;17834;52.992;8.856;2023-03-23T15:26:52;7.47;;;1.83;;
31206;SDS011;17834;52.992;8.856;2023-03-23T15:29:19;4.15;;;1.08;;
31206;SDS011;17834;52.992;8.856;2023-03-23T15:31:47;4.55;;;1.10;;
31206;SDS011;17834;52.992;8.856;2023-03-23T15:34:35;3.83;;;1.17;;
31206;SDS011;17834;52.992;8.856;2023-03-23T15:37:06;6.35;;;0.90;;
31206;SDS011;17834;52.992;8.856;2023-03-23T15:39:32;4.00;;;0.98;;
31206;SDS011;17834;52.992;8.856;2023-03-23T15:41:58;3.55;;;1.10;;
31206;SDS011;17834;52.992;8.856;2023-03-23T15:44:26;3.05;;;0.73;;
31206;SDS011;17834;52.992;8.856;2023-03-23T15:46:53;10.05;;;1.45;;
31206;SDS011;17834;52.992;8.856;2023-03-23T15:49:19;7.32;;;1.00;;
31206;SDS011;17834;52.992;8.856;2023-03-23T15:51:46;8.27;;;1.45;;
31206;SDS011;17834;52.992;8.856;2023-03-23T15:54:13;6.63;;;1.50;;
31206;SDS011;17834;52.992;8.856;2023-03-23T15:56:39;4.47;;;1.00;;
31206;SDS011;17834;52.992;8.856;2023-03-23T15:59:07;4.50;;;1.08;;
31206;SDS011;17834;52.992;8.856;2023-03-23T16:01:33;4.38;;;0.88;;
31206;SDS011;17834;52.992;8.856;2023-03-23T16:04:00;2.80;;;0.82;;
31206;SDS011;17834;52.992;8.856;2023-03-23T16:06:27;5.78;;;1.15;;
31206;SDS011;17834;52.992;8.856;2023-03-23T16:08:55;3.53;;;0.80;;
31206;SDS011;17834;52.992;8.856;2023-03-23T16:11:22;3.35;;;0.80;;
31206;SDS011;17834;52.992;8.856;2023-03-23T16:13:49;3.78;;;1.00;;
31206;SDS011;17834;52.992;8.856;2023-03-23T16:16:16;5.22;;;0.85;;
31206;SDS011;17834;52.992;8.856;2023-03-23T16:18:42;5.72;;;0.90;;
31206;SDS011;17834;52.992;8.856;2023-03-23T16:23:34;5.70;;;1.00;;
31206;SDS011;17834;52.992;8.856;2023-03-23T16:26:00;1.58;;;0.70;;
31206;SDS011;17834;52.992;8.856;2023-03-23T16:28:26;2.72;;;0.70;;
31206;SDS011;17834;52.992;8.856;2023-03-23T16:30:52;3.20;;;0.57;;
31206;SDS011;17834;52.992;8.856;2023-03-23T16:33:18;3.42;;;0.70;;
31206;SDS011;17834;52.992;8.856;2023-03-23T16:35:44;1.52;;;0.75;;